sensor_id;sensor_type;location;lat;lon;timestamp;temperature;humidity
8099;DHT22;4092;47.876;9.372;2023-06-14T00:01:53;14.20;66.80
8099;DHT22;4092;47.876;9.372;2023-06-14T00:04:21;14.10;66.70
8099;DHT22;4092;47.876;9.372;2023-06-14T00:06:51;14.10;66.50
8099;DHT22;4092;47.876;9.372;2023-06-14T00:09:18;14.10;66.70
8099;DHT22;4092;47.876;9.372;2023-06-14T00:11:49;14.00;67.00
8099;DHT22;4092;47.876;9.372;2023-06-14T00:14:16;14.00;67.40
8099;DHT22;4092;47.876;9.372;2023-06-14T00:16:44;14.00;67.40
8099;DHT22;4092;47.876;9.372;2023-06-14T00:19:11;14.00;67.40
8099;DHT22;4092;47.876;9.372;2023-06-14T00:21:40;13.90;67.60
8099;DHT22;4092;47.876;9.372;2023-06-14T00:24:08;13.90;68.10
8099;DHT22;4092;47.876;9.372;2023-06-14T00:26:35;13.90;67.80
8099;DHT22;4092;47.876;9.372;2023-06-14T00:29:04;13.90;67.70
8099;DHT22;4092;47.876;9.372;2023-06-14T00:31:31;13.90;67.80
8099;DHT22;4092;47.876;9.372;2023-06-14T00:33:59;13.90;68.40
8099;DHT22;4092;47.876;9.372;2023-06-14T00:36:26;13.80;68.00
8099;DHT22;4092;47.876;9.372;2023-06-14T00:38:54;13.80;68.40
8099;DHT22;4092;47.876;9.372;2023-06-14T00:41:22;13.80;68.10
8099;DHT22;4092;47.876;9.372;2023-06-14T00:43:51;13.80;68.00
8099;DHT22;4092;47.876;9.372;2023-06-14T00:46:20;13.70;67.80
8099;DHT22;4092;47.876;9.372;2023-06-14T00:48:48;13.80;68.10
8099;DHT22;4092;47.876;9.372;2023-06-14T00:51:15;13.80;68.40
8099;DHT22;4092;47.876;9.372;2023-06-14T00:53:44;13.80;68.70
8099;DHT22;4092;47.876;9.372;2023-06-14T00:56:13;13.80;68.60
8099;DHT22;4092;47.876;9.372;2023-06-14T00:58:42;13.70;69.00
8099;DHT22;4092;47.876;9.372;2023-06-14T01:01:12;13.70;69.30
8099;DHT22;4092;47.876;9.372;2023-06-14T01:03:41;13.60;69.40
8099;DHT22;4092;47.876;9.372;2023-06-14T01:06:15;13.60;69.60
8099;DHT22;4092;47.876;9.372;2023-06-14T01:09:00;13.50;69.70
8099;DHT22;4092;47.876;9.372;2023-06-14T01:11:31;13.40;70.10
8099;DHT22;4092;47.876;9.372;2023-06-14T01:14:01;13.40;70.50
8099;DHT22;4092;47.876;9.372;2023-06-14T01:16:31;13.30;70.50
8099;DHT22;4092;47.876;9.372;2023-06-14T01:19:03;13.30;70.80
8099;DHT22;4092;47.876;9.372;2023-06-14T01:21:31;13.20;70.80
8099;DHT22;4092;47.876;9.372;2023-06-14T01:24:08;13.20;70.80
8099;DHT22;4092;47.876;9.372;2023-06-14T01:26:36;13.20;71.30
8099;DHT22;4092;47.876;9.372;2023-06-14T01:29:11;13.10;71.00
8099;DHT22;4092;47.876;9.372;2023-06-14T01:31:43;13.10;71.30
8099;DHT22;4092;47.876;9.372;2023-06-14T01:34:11;13.10;71.90
8099;DHT22;4092;47.876;9.372;2023-06-14T01:36:40;13.00;71.80
8099;DHT22;4092;47.876;9.372;2023-06-14T01:39:10;13.00;72.20
8099;DHT22;4092;47.876;9.372;2023-06-14T01:41:39;13.00;72.40
8099;DHT22;4092;47.876;9.372;2023-06-14T01:44:06;13.00;72.60
8099;DHT22;4092;47.876;9.372;2023-06-14T01:46:33;13.00;72.40
8099;DHT22;4092;47.876;9.372;2023-06-14T01:49:01;13.00;72.70
8099;DHT22;4092;47.876;9.372;2023-06-14T01:51:29;13.00;73.60
8099;DHT22;4092;47.876;9.372;2023-06-14T01:53:56;13.00;73.00
8099;DHT22;4092;47.876;9.372;2023-06-14T01:56:25;12.90;73.40
8099;DHT22;4092;47.876;9.372;2023-06-14T01:58:52;13.00;73.10
8099;DHT22;4092;47.876;9.372;2023-06-14T02:01:20;13.00;74.30
8099;DHT22;4092;47.876;9.372;2023-06-14T02:03:48;13.00;74.20
8099;DHT22;4092;47.876;9.372;2023-06-14T02:06:16;12.90;74.20
8099;DHT22;4092;47.876;9.372;2023-06-14T02:08:44;12.90;74.20
8099;DHT22;4092;47.876;9.372;2023-06-14T02:11:12;12.80;75.30
8099;DHT22;4092;47.876;9.372;2023-06-14T02:13:42;12.80;75.20
8099;DHT22;4092;47.876;9.372;2023-06-14T02:16:10;12.70;75.50
8099;DHT22;4092;47.876;9.372;2023-06-14T02:18:37;12.70;75.80
8099;DHT22;4092;47.876;9.372;2023-06-14T02:21:04;12.60;76.40
8099;DHT22;4092;47.876;9.372;2023-06-14T02:23:32;12.60;76.80
8099;DHT22;4092;47.876;9.372;2023-06-14T02:25:59;12.40;77.00
8099;DHT22;4092;47.876;9.372;2023-06-14T02:28:26;12.40;77.50
8099;DHT22;4092;47.876;9.372;2023-06-14T02:30:54;12.30;78.10
8099;DHT22;4092;47.876;9.372;2023-06-14T02:33:21;12.20;79.30
8099;DHT22;4092;47.876;9.372;2023-06-14T02:35:49;12.10;79.00
8099;DHT22;4092;47.876;9.372;2023-06-14T02:38:16;12.00;79.40
8099;DHT22;4092;47.876;9.372;2023-06-14T02:40:43;12.00;80.00
8099;DHT22;4092;47.876;9.372;2023-06-14T02:43:10;11.90;80.50
8099;DHT22;4092;47.876;9.372;2023-06-14T02:45:37;11.90;81.10
8099;DHT22;4092;47.876;9.372;2023-06-14T02:48:05;11.80;81.30
8099;DHT22;4092;47.876;9.372;2023-06-14T02:50:33;11.80;81.40
8099;DHT22;4092;47.876;9.372;2023-06-14T02:53:00;11.70;82.00
8099;DHT22;4092;47.876;9.372;2023-06-14T02:55:28;11.70;82.10
8099;DHT22;4092;47.876;9.372;2023-06-14T02:57:55;11.60;82.10
8099;DHT22;4092;47.876;9.372;2023-06-14T03:00:22;11.60;82.50
8099;DHT22;4092;47.876;9.372;2023-06-14T03:02:49;11.50;82.70
8099;DHT22;4092;47.876;9.372;2023-06-14T03:05:22;11.50;83.00
8099;DHT22;4092;47.876;9.372;2023-06-14T03:07:49;11.50;82.90
8099;DHT22;4092;47.876;9.372;2023-06-14T03:10:20;11.50;83.00
8099;DHT22;4092;47.876;9.372;2023-06-14T03:12:48;11.50;83.20
8099;DHT22;4092;47.876;9.372;2023-06-14T03:15:17;11.50;83.40
8099;DHT22;4092;47.876;9.372;2023-06-14T03:17:44;11.50;83.50
8099;DHT22;4092;47.876;9.372;2023-06-14T03:20:14;11.50;83.50
8099;DHT22;4092;47.876;9.372;2023-06-14T03:22:44;11.40;83.70
8099;DHT22;4092;47.876;9.372;2023-06-14T03:25:13;11.40;84.20
8099;DHT22;4092;47.876;9.372;2023-06-14T03:27:40;11.40;84.10
8099;DHT22;4092;47.876;9.372;2023-06-14T03:30:08;11.40;84.20
8099;DHT22;4092;47.876;9.372;2023-06-14T03:32:35;11.40;84.40
8099;DHT22;4092;47.876;9.372;2023-06-14T03:35:03;11.40;84.80
8099;DHT22;4092;47.876;9.372;2023-06-14T03:37:31;11.40;84.90
8099;DHT22;4092;47.876;9.372;2023-06-14T03:40:00;11.40;85.00
8099;DHT22;4092;47.876;9.372;2023-06-14T03:42:32;11.30;85.00
8099;DHT22;4092;47.876;9.372;2023-06-14T03:44:59;11.30;85.10
8099;DHT22;4092;47.876;9.372;2023-06-14T03:47:26;11.30;85.20
8099;DHT22;4092;47.876;9.372;2023-06-14T03:49:53;11.30;85.50
8099;DHT22;4092;47.876;9.372;2023-06-14T03:52:20;11.30;85.30
8099;DHT22;4092;47.876;9.372;2023-06-14T03:54:49;11.30;85.60
8099;DHT22;4092;47.876;9.372;2023-06-14T03:57:18;11.30;85.70
8099;DHT22;4092;47.876;9.372;2023-06-14T03:59:45;11.40;85.90
8099;DHT22;4092;47.876;9.372;2023-06-14T04:02:13;11.30;85.80
8099;DHT22;4092;47.876;9.372;2023-06-14T04:04:41;11.30;86.90
8099;DHT22;4092;47.876;9.372;2023-06-14T04:07:09;11.30;86.40
8099;DHT22;4092;47.876;9.372;2023-06-14T04:09:37;11.30;86.60
8099;DHT22;4092;47.876;9.372;2023-06-14T04:12:06;11.30;86.80
8099;DHT22;4092;47.876;9.372;2023-06-14T04:14:36;11.40;87.00
8099;DHT22;4092;47.876;9.372;2023-06-14T04:17:05;11.40;86.90
8099;DHT22;4092;47.876;9.372;2023-06-14T04:19:32;11.50;87.20
8099;DHT22;4092;47.876;9.372;2023-06-14T04:22:00;11.50;87.60
8099;DHT22;4092;47.876;9.372;2023-06-14T04:24:28;11.50;88.00
8099;DHT22;4092;47.876;9.372;2023-06-14T04:26:58;11.50;87.40
8099;DHT22;4092;47.876;9.372;2023-06-14T04:29:26;11.60;87.70
8099;DHT22;4092;47.876;9.372;2023-06-14T04:31:56;11.60;87.90
8099;DHT22;4092;47.876;9.372;2023-06-14T04:34:25;11.70;88.50
8099;DHT22;4092;47.876;9.372;2023-06-14T04:36:55;11.70;88.70
8099;DHT22;4092;47.876;9.372;2023-06-14T04:39:25;11.80;88.90
8099;DHT22;4092;47.876;9.372;2023-06-14T04:41:53;11.80;88.80
8099;DHT22;4092;47.876;9.372;2023-06-14T04:44:23;11.90;89.00
8099;DHT22;4092;47.876;9.372;2023-06-14T04:46:57;12.00;88.40
8099;DHT22;4092;47.876;9.372;2023-06-14T04:49:24;12.00;89.10
8099;DHT22;4092;47.876;9.372;2023-06-14T04:51:52;12.10;89.00
8099;DHT22;4092;47.876;9.372;2023-06-14T04:54:23;12.20;89.10
8099;DHT22;4092;47.876;9.372;2023-06-14T04:56:50;12.20;89.50
8099;DHT22;4092;47.876;9.372;2023-06-14T04:59:17;12.30;89.90
8099;DHT22;4092;47.876;9.372;2023-06-14T05:01:44;12.30;90.10
8099;DHT22;4092;47.876;9.372;2023-06-14T05:04:14;12.40;90.00
8099;DHT22;4092;47.876;9.372;2023-06-14T05:06:41;12.50;90.00
8099;DHT22;4092;47.876;9.372;2023-06-14T05:09:10;12.60;89.80
8099;DHT22;4092;47.876;9.372;2023-06-14T05:11:37;12.60;88.60
8099;DHT22;4092;47.876;9.372;2023-06-14T05:14:04;12.70;88.80
8099;DHT22;4092;47.876;9.372;2023-06-14T05:16:31;12.70;88.30
8099;DHT22;4092;47.876;9.372;2023-06-14T05:18:58;12.80;88.60
8099;DHT22;4092;47.876;9.372;2023-06-14T05:21:28;12.90;87.40
8099;DHT22;4092;47.876;9.372;2023-06-14T05:23:55;12.90;87.50
8099;DHT22;4092;47.876;9.372;2023-06-14T05:26:22;13.00;87.30
8099;DHT22;4092;47.876;9.372;2023-06-14T05:28:50;13.00;87.10
8099;DHT22;4092;47.876;9.372;2023-06-14T05:31:18;13.10;87.80
8099;DHT22;4092;47.876;9.372;2023-06-14T05:33:45;13.10;87.90
8099;DHT22;4092;47.876;9.372;2023-06-14T05:36:12;13.30;87.60
8099;DHT22;4092;47.876;9.372;2023-06-14T05:38:40;13.30;87.70
8099;DHT22;4092;47.876;9.372;2023-06-14T05:41:08;13.30;87.60
8099;DHT22;4092;47.876;9.372;2023-06-14T05:43:35;13.40;86.90
8099;DHT22;4092;47.876;9.372;2023-06-14T05:46:02;13.50;88.20
8099;DHT22;4092;47.876;9.372;2023-06-14T05:48:28;13.60;87.80
8099;DHT22;4092;47.876;9.372;2023-06-14T05:50:56;13.70;89.70
8099;DHT22;4092;47.876;9.372;2023-06-14T05:53:23;13.70;88.60
8099;DHT22;4092;47.876;9.372;2023-06-14T05:55:51;13.80;88.40
8099;DHT22;4092;47.876;9.372;2023-06-14T05:58:21;13.80;87.90
8099;DHT22;4092;47.876;9.372;2023-06-14T06:00:47;14.00;89.70
8099;DHT22;4092;47.876;9.372;2023-06-14T06:03:16;14.10;88.80
8099;DHT22;4092;47.876;9.372;2023-06-14T06:05:43;14.10;89.20
8099;DHT22;4092;47.876;9.372;2023-06-14T06:08:10;14.20;87.60
8099;DHT22;4092;47.876;9.372;2023-06-14T06:10:37;14.30;88.10
8099;DHT22;4092;47.876;9.372;2023-06-14T06:13:06;14.30;88.90
8099;DHT22;4092;47.876;9.372;2023-06-14T06:15:32;14.40;89.30
8099;DHT22;4092;47.876;9.372;2023-06-14T06:18:00;14.50;89.70
8099;DHT22;4092;47.876;9.372;2023-06-14T06:20:27;14.60;88.60
8099;DHT22;4092;47.876;9.372;2023-06-14T06:22:56;14.70;88.10
8099;DHT22;4092;47.876;9.372;2023-06-14T06:25:24;14.80;88.90
8099;DHT22;4092;47.876;9.372;2023-06-14T06:27:51;14.90;90.30
8099;DHT22;4092;47.876;9.372;2023-06-14T06:30:20;15.00;90.50
8099;DHT22;4092;47.876;9.372;2023-06-14T06:32:48;15.10;89.40
8099;DHT22;4092;47.876;9.372;2023-06-14T06:35:16;15.20;88.00
8099;DHT22;4092;47.876;9.372;2023-06-14T06:37:44;15.40;88.30
8099;DHT22;4092;47.876;9.372;2023-06-14T06:40:11;15.50;86.90
8099;DHT22;4092;47.876;9.372;2023-06-14T06:42:39;15.60;86.10
8099;DHT22;4092;47.876;9.372;2023-06-14T06:45:06;15.70;87.20
8099;DHT22;4092;47.876;9.372;2023-06-14T06:47:35;15.80;87.60
8099;DHT22;4092;47.876;9.372;2023-06-14T06:50:02;15.90;89.40
8099;DHT22;4092;47.876;9.372;2023-06-14T06:52:29;16.00;88.20
8099;DHT22;4092;47.876;9.372;2023-06-14T06:54:58;16.20;87.30
8099;DHT22;4092;47.876;9.372;2023-06-14T06:57:26;16.30;86.80
8099;DHT22;4092;47.876;9.372;2023-06-14T06:59:54;16.30;85.80
8099;DHT22;4092;47.876;9.372;2023-06-14T07:02:21;16.50;86.30
8099;DHT22;4092;47.876;9.372;2023-06-14T07:04:49;16.60;86.80
8099;DHT22;4092;47.876;9.372;2023-06-14T07:07:17;16.70;86.00
8099;DHT22;4092;47.876;9.372;2023-06-14T07:09:44;16.80;86.60
8099;DHT22;4092;47.876;9.372;2023-06-14T07:12:11;16.90;88.00
8099;DHT22;4092;47.876;9.372;2023-06-14T07:14:38;17.00;87.90
8099;DHT22;4092;47.876;9.372;2023-06-14T07:17:05;17.10;86.90
8099;DHT22;4092;47.876;9.372;2023-06-14T07:19:33;17.30;87.50
8099;DHT22;4092;47.876;9.372;2023-06-14T07:22:01;17.30;85.80
8099;DHT22;4092;47.876;9.372;2023-06-14T07:24:28;17.40;85.30
8099;DHT22;4092;47.876;9.372;2023-06-14T07:26:55;17.60;85.40
8099;DHT22;4092;47.876;9.372;2023-06-14T07:29:22;17.70;84.30
8099;DHT22;4092;47.876;9.372;2023-06-14T07:31:49;17.70;83.30
8099;DHT22;4092;47.876;9.372;2023-06-14T07:34:16;17.80;83.10
8099;DHT22;4092;47.876;9.372;2023-06-14T07:36:43;17.90;83.20
8099;DHT22;4092;47.876;9.372;2023-06-14T07:39:12;18.00;83.50
8099;DHT22;4092;47.876;9.372;2023-06-14T07:41:40;18.20;83.60
8099;DHT22;4092;47.876;9.372;2023-06-14T07:44:07;18.30;83.10
8099;DHT22;4092;47.876;9.372;2023-06-14T07:46:34;18.50;83.20
8099;DHT22;4092;47.876;9.372;2023-06-14T07:49:01;18.60;82.30
8099;DHT22;4092;47.876;9.372;2023-06-14T07:51:28;18.80;81.60
8099;DHT22;4092;47.876;9.372;2023-06-14T07:53:55;19.00;82.20
8099;DHT22;4092;47.876;9.372;2023-06-14T07:56:24;19.10;78.20
8099;DHT22;4092;47.876;9.372;2023-06-14T07:58:51;19.20;77.50
8099;DHT22;4092;47.876;9.372;2023-06-14T08:01:18;19.30;76.50
8099;DHT22;4092;47.876;9.372;2023-06-14T08:03:45;19.30;75.50
8099;DHT22;4092;47.876;9.372;2023-06-14T08:06:12;19.40;75.60
8099;DHT22;4092;47.876;9.372;2023-06-14T08:08:39;19.50;76.30
8099;DHT22;4092;47.876;9.372;2023-06-14T08:11:07;19.60;77.20
8099;DHT22;4092;47.876;9.372;2023-06-14T08:13:36;19.80;78.40
8099;DHT22;4092;47.876;9.372;2023-06-14T08:16:03;19.90;71.60
8099;DHT22;4092;47.876;9.372;2023-06-14T08:18:31;20.00;68.40
8099;DHT22;4092;47.876;9.372;2023-06-14T08:20:58;20.00;67.30
8099;DHT22;4092;47.876;9.372;2023-06-14T08:23:28;20.10;67.40
8099;DHT22;4092;47.876;9.372;2023-06-14T08:25:56;20.10;70.00
8099;DHT22;4092;47.876;9.372;2023-06-14T08:28:24;20.20;69.30
8099;DHT22;4092;47.876;9.372;2023-06-14T08:30:52;20.10;69.90
8099;DHT22;4092;47.876;9.372;2023-06-14T08:33:19;20.10;70.30
8099;DHT22;4092;47.876;9.372;2023-06-14T08:35:47;20.30;71.30
8099;DHT22;4092;47.876;9.372;2023-06-14T08:38:14;20.40;64.50
8099;DHT22;4092;47.876;9.372;2023-06-14T08:40:42;20.50;68.60
8099;DHT22;4092;47.876;9.372;2023-06-14T08:43:09;20.60;67.10
8099;DHT22;4092;47.876;9.372;2023-06-14T08:45:36;20.60;64.10
8099;DHT22;4092;47.876;9.372;2023-06-14T08:48:06;20.70;66.90
8099;DHT22;4092;47.876;9.372;2023-06-14T08:50:36;20.70;68.00
8099;DHT22;4092;47.876;9.372;2023-06-14T08:53:08;20.80;68.10
8099;DHT22;4092;47.876;9.372;2023-06-14T08:55:39;20.90;70.50
8099;DHT22;4092;47.876;9.372;2023-06-14T08:58:06;21.10;67.70
8099;DHT22;4092;47.876;9.372;2023-06-14T09:00:35;21.30;65.60
8099;DHT22;4092;47.876;9.372;2023-06-14T09:03:06;21.30;65.40
8099;DHT22;4092;47.876;9.372;2023-06-14T09:05:39;21.30;64.90
8099;DHT22;4092;47.876;9.372;2023-06-14T09:08:06;21.40;66.90
8099;DHT22;4092;47.876;9.372;2023-06-14T09:10:33;21.40;64.40
8099;DHT22;4092;47.876;9.372;2023-06-14T09:13:03;21.50;66.40
8099;DHT22;4092;47.876;9.372;2023-06-14T09:15:30;21.60;66.20
8099;DHT22;4092;47.876;9.372;2023-06-14T09:17:57;21.70;64.00
8099;DHT22;4092;47.876;9.372;2023-06-14T09:20:25;21.70;65.80
8099;DHT22;4092;47.876;9.372;2023-06-14T09:22:53;21.80;63.70
8099;DHT22;4092;47.876;9.372;2023-06-14T09:25:20;21.80;66.00
8099;DHT22;4092;47.876;9.372;2023-06-14T09:27:48;21.80;63.40
8099;DHT22;4092;47.876;9.372;2023-06-14T09:30:15;21.80;67.10
8099;DHT22;4092;47.876;9.372;2023-06-14T09:32:44;21.90;65.30
8099;DHT22;4092;47.876;9.372;2023-06-14T09:35:12;21.90;63.20
8099;DHT22;4092;47.876;9.372;2023-06-14T09:37:40;21.90;62.50
8099;DHT22;4092;47.876;9.372;2023-06-14T09:40:08;22.00;63.00
8099;DHT22;4092;47.876;9.372;2023-06-14T09:42:35;22.10;63.10
8099;DHT22;4092;47.876;9.372;2023-06-14T09:45:03;22.20;63.80
8099;DHT22;4092;47.876;9.372;2023-06-14T09:47:31;22.20;63.20
8099;DHT22;4092;47.876;9.372;2023-06-14T09:49:58;22.20;66.20
8099;DHT22;4092;47.876;9.372;2023-06-14T09:52:27;22.30;64.40
8099;DHT22;4092;47.876;9.372;2023-06-14T09:54:56;22.40;65.80
8099;DHT22;4092;47.876;9.372;2023-06-14T09:57:27;22.60;64.30
8099;DHT22;4092;47.876;9.372;2023-06-14T10:00:00;22.40;64.30
8099;DHT22;4092;47.876;9.372;2023-06-14T10:02:33;22.50;65.80
8099;DHT22;4092;47.876;9.372;2023-06-14T10:05:04;22.80;65.50
8099;DHT22;4092;47.876;9.372;2023-06-14T10:07:36;22.90;63.60
8099;DHT22;4092;47.876;9.372;2023-06-14T10:10:07;22.90;62.80
8099;DHT22;4092;47.876;9.372;2023-06-14T10:12:34;22.70;62.10
8099;DHT22;4092;47.876;9.372;2023-06-14T10:15:02;22.70;62.60
8099;DHT22;4092;47.876;9.372;2023-06-14T10:17:35;22.80;64.50
8099;DHT22;4092;47.876;9.372;2023-06-14T10:20:14;22.90;63.80
8099;DHT22;4092;47.876;9.372;2023-06-14T10:22:49;22.90;64.90
8099;DHT22;4092;47.876;9.372;2023-06-14T10:25:28;22.90;64.80
8099;DHT22;4092;47.876;9.372;2023-06-14T10:28:19;23.00;65.70
8099;DHT22;4092;47.876;9.372;2023-06-14T10:31:03;23.10;63.20
8099;DHT22;4092;47.876;9.372;2023-06-14T10:33:31;23.10;63.30
8099;DHT22;4092;47.876;9.372;2023-06-14T10:36:08;23.20;65.40
8099;DHT22;4092;47.876;9.372;2023-06-14T10:38:37;23.30;62.50
8099;DHT22;4092;47.876;9.372;2023-06-14T10:41:06;23.50;64.60
8099;DHT22;4092;47.876;9.372;2023-06-14T10:43:33;23.60;64.50
8099;DHT22;4092;47.876;9.372;2023-06-14T10:46:16;23.70;64.40
8099;DHT22;4092;47.876;9.372;2023-06-14T10:48:44;23.90;61.50
8099;DHT22;4092;47.876;9.372;2023-06-14T10:51:21;23.90;63.50
8099;DHT22;4092;47.876;9.372;2023-06-14T10:53:49;23.90;65.30
8099;DHT22;4092;47.876;9.372;2023-06-14T10:56:30;23.90;63.90
8099;DHT22;4092;47.876;9.372;2023-06-14T10:58:59;24.10;60.90
8099;DHT22;4092;47.876;9.372;2023-06-14T11:01:35;24.10;63.60
8099;DHT22;4092;47.876;9.372;2023-06-14T11:04:11;24.30;60.20
8099;DHT22;4092;47.876;9.372;2023-06-14T11:06:48;24.30;63.30
8099;DHT22;4092;47.876;9.372;2023-06-14T11:09:49;24.20;63.70
8099;DHT22;4092;47.876;9.372;2023-06-14T11:12:23;24.30;63.20
8099;DHT22;4092;47.876;9.372;2023-06-14T11:14:52;24.20;64.00
8099;DHT22;4092;47.876;9.372;2023-06-14T11:17:19;24.30;63.80
8099;DHT22;4092;47.876;9.372;2023-06-14T11:19:46;24.40;63.00
8099;DHT22;4092;47.876;9.372;2023-06-14T11:22:13;24.50;62.90
8099;DHT22;4092;47.876;9.372;2023-06-14T11:24:44;24.50;59.60
8099;DHT22;4092;47.876;9.372;2023-06-14T11:27:11;24.40;59.40
8099;DHT22;4092;47.876;9.372;2023-06-14T11:29:47;24.50;63.60
8099;DHT22;4092;47.876;9.372;2023-06-14T11:32:15;24.70;62.10
8099;DHT22;4092;47.876;9.372;2023-06-14T11:34:46;24.90;61.70
8099;DHT22;4092;47.876;9.372;2023-06-14T11:37:13;25.00;61.40
8099;DHT22;4092;47.876;9.372;2023-06-14T11:39:43;25.00;61.20
8099;DHT22;4092;47.876;9.372;2023-06-14T11:42:14;25.10;62.30
8099;DHT22;4092;47.876;9.372;2023-06-14T11:44:45;25.30;63.60
8099;DHT22;4092;47.876;9.372;2023-06-14T11:47:12;25.20;59.90
8099;DHT22;4092;47.876;9.372;2023-06-14T11:49:39;25.40;63.00
8099;DHT22;4092;47.876;9.372;2023-06-14T11:52:07;25.40;61.30
8099;DHT22;4092;47.876;9.372;2023-06-14T11:54:37;25.40;63.20
8099;DHT22;4092;47.876;9.372;2023-06-14T11:57:06;25.50;60.50
8099;DHT22;4092;47.876;9.372;2023-06-14T11:59:38;25.60;59.80
8099;DHT22;4092;47.876;9.372;2023-06-14T12:02:14;25.60;59.60
8099;DHT22;4092;47.876;9.372;2023-06-14T12:04:41;25.60;61.30
8099;DHT22;4092;47.876;9.372;2023-06-14T12:07:12;25.90;63.20
8099;DHT22;4092;47.876;9.372;2023-06-14T12:09:41;25.90;59.20
8099;DHT22;4092;47.876;9.372;2023-06-14T12:12:10;25.90;59.10
8099;DHT22;4092;47.876;9.372;2023-06-14T12:14:37;25.80;57.60
8099;DHT22;4092;47.876;9.372;2023-06-14T12:17:05;25.80;57.90
8099;DHT22;4092;47.876;9.372;2023-06-14T12:19:41;26.00;59.10
8099;DHT22;4092;47.876;9.372;2023-06-14T12:22:10;26.10;59.90
8099;DHT22;4092;47.876;9.372;2023-06-14T12:24:38;26.10;58.30
8099;DHT22;4092;47.876;9.372;2023-06-14T12:27:06;26.10;56.70
8099;DHT22;4092;47.876;9.372;2023-06-14T12:29:33;26.10;58.70
8099;DHT22;4092;47.876;9.372;2023-06-14T12:32:01;26.30;58.90
8099;DHT22;4092;47.876;9.372;2023-06-14T12:34:29;26.40;58.90
8099;DHT22;4092;47.876;9.372;2023-06-14T12:36:58;26.40;58.40
8099;DHT22;4092;47.876;9.372;2023-06-14T12:39:25;26.60;57.50
8099;DHT22;4092;47.876;9.372;2023-06-14T12:41:52;26.70;58.80
8099;DHT22;4092;47.876;9.372;2023-06-14T12:44:20;26.80;58.30
8099;DHT22;4092;47.876;9.372;2023-06-14T12:46:47;26.90;59.80
8099;DHT22;4092;47.876;9.372;2023-06-14T12:49:17;27.10;57.90
8099;DHT22;4092;47.876;9.372;2023-06-14T12:51:44;27.20;58.30
8099;DHT22;4092;47.876;9.372;2023-06-14T12:54:13;27.30;60.90
8099;DHT22;4092;47.876;9.372;2023-06-14T12:56:41;27.40;58.40
8099;DHT22;4092;47.876;9.372;2023-06-14T12:59:10;27.50;57.60
8099;DHT22;4092;47.876;9.372;2023-06-14T13:01:38;27.40;56.80
8099;DHT22;4092;47.876;9.372;2023-06-14T13:04:05;27.50;58.00
8099;DHT22;4092;47.876;9.372;2023-06-14T13:06:32;27.60;56.90
8099;DHT22;4092;47.876;9.372;2023-06-14T13:09:00;27.50;57.00
8099;DHT22;4092;47.876;9.372;2023-06-14T13:11:30;27.70;56.20
8099;DHT22;4092;47.876;9.372;2023-06-14T13:13:57;27.60;56.30
8099;DHT22;4092;47.876;9.372;2023-06-14T13:16:24;28.00;57.10
8099;DHT22;4092;47.876;9.372;2023-06-14T13:18:52;27.80;54.20
8099;DHT22;4092;47.876;9.372;2023-06-14T13:21:19;27.90;55.80
8099;DHT22;4092;47.876;9.372;2023-06-14T13:23:46;28.20;54.70
8099;DHT22;4092;47.876;9.372;2023-06-14T13:26:15;28.40;56.40
8099;DHT22;4092;47.876;9.372;2023-06-14T13:28:45;28.30;55.50
8099;DHT22;4092;47.876;9.372;2023-06-14T13:31:12;28.00;55.00
8099;DHT22;4092;47.876;9.372;2023-06-14T13:33:39;28.20;56.10
8099;DHT22;4092;47.876;9.372;2023-06-14T13:36:06;28.30;57.00
8099;DHT22;4092;47.876;9.372;2023-06-14T13:38:33;28.60;57.90
8099;DHT22;4092;47.876;9.372;2023-06-14T13:41:00;28.70;56.10
8099;DHT22;4092;47.876;9.372;2023-06-14T13:43:27;28.90;54.20
8099;DHT22;4092;47.876;9.372;2023-06-14T13:45:55;28.80;54.10
8099;DHT22;4092;47.876;9.372;2023-06-14T13:48:22;28.90;53.60
8099;DHT22;4092;47.876;9.372;2023-06-14T13:50:51;28.90;53.30
8099;DHT22;4092;47.876;9.372;2023-06-14T13:53:20;29.00;54.10
8099;DHT22;4092;47.876;9.372;2023-06-14T13:55:47;28.70;53.60
8099;DHT22;4092;47.876;9.372;2023-06-14T13:58:14;28.40;53.10
8099;DHT22;4092;47.876;9.372;2023-06-14T14:00:41;28.50;55.60
8099;DHT22;4092;47.876;9.372;2023-06-14T14:03:09;28.50;55.10
8099;DHT22;4092;47.876;9.372;2023-06-14T14:05:37;28.80;53.50
8099;DHT22;4092;47.876;9.372;2023-06-14T14:08:04;29.00;53.80
8099;DHT22;4092;47.876;9.372;2023-06-14T14:10:31;28.90;53.30
8099;DHT22;4092;47.876;9.372;2023-06-14T14:12:59;29.00;53.10
8099;DHT22;4092;47.876;9.372;2023-06-14T14:15:27;29.10;53.50
8099;DHT22;4092;47.876;9.372;2023-06-14T14:17:54;29.10;53.50
8099;DHT22;4092;47.876;9.372;2023-06-14T14:20:24;29.20;53.00
8099;DHT22;4092;47.876;9.372;2023-06-14T14:22:51;29.50;51.40
8099;DHT22;4092;47.876;9.372;2023-06-14T14:25:18;29.50;50.90
8099;DHT22;4092;47.876;9.372;2023-06-14T14:27:45;28.80;52.10
8099;DHT22;4092;47.876;9.372;2023-06-14T14:30:13;28.60;52.40
8099;DHT22;4092;47.876;9.372;2023-06-14T14:32:42;28.80;52.50
8099;DHT22;4092;47.876;9.372;2023-06-14T14:35:09;28.90;52.10
8099;DHT22;4092;47.876;9.372;2023-06-14T14:37:38;29.30;51.60
8099;DHT22;4092;47.876;9.372;2023-06-14T14:40:07;29.60;50.60
8099;DHT22;4092;47.876;9.372;2023-06-14T14:42:36;30.00;50.60
8099;DHT22;4092;47.876;9.372;2023-06-14T14:45:04;30.20;49.30
8099;DHT22;4092;47.876;9.372;2023-06-14T14:47:31;30.10;49.30
8099;DHT22;4092;47.876;9.372;2023-06-14T14:50:00;29.90;50.30
8099;DHT22;4092;47.876;9.372;2023-06-14T14:52:26;29.50;50.60
8099;DHT22;4092;47.876;9.372;2023-06-14T14:54:56;29.50;50.20
8099;DHT22;4092;47.876;9.372;2023-06-14T14:57:23;29.50;50.30
8099;DHT22;4092;47.876;9.372;2023-06-14T14:59:50;29.30;50.60
8099;DHT22;4092;47.876;9.372;2023-06-14T15:02:17;29.40;51.70
8099;DHT22;4092;47.876;9.372;2023-06-14T15:04:45;29.40;50.20
8099;DHT22;4092;47.876;9.372;2023-06-14T15:07:14;29.90;50.70
8099;DHT22;4092;47.876;9.372;2023-06-14T15:09:42;30.30;49.90
8099;DHT22;4092;47.876;9.372;2023-06-14T15:12:11;30.60;50.30
8099;DHT22;4092;47.876;9.372;2023-06-14T15:14:39;30.70;50.10
8099;DHT22;4092;47.876;9.372;2023-06-14T15:17:06;30.80;49.00
8099;DHT22;4092;47.876;9.372;2023-06-14T15:19:32;30.90;48.80
8099;DHT22;4092;47.876;9.372;2023-06-14T15:22:01;30.90;48.50
8099;DHT22;4092;47.876;9.372;2023-06-14T15:24:28;30.90;47.50
8099;DHT22;4092;47.876;9.372;2023-06-14T15:26:56;30.90;47.70
8099;DHT22;4092;47.876;9.372;2023-06-14T15:29:24;31.10;48.20
8099;DHT22;4092;47.876;9.372;2023-06-14T15:31:51;31.10;47.90
8099;DHT22;4092;47.876;9.372;2023-06-14T15:34:20;31.20;48.30
8099;DHT22;4092;47.876;9.372;2023-06-14T15:36:47;31.40;46.90
8099;DHT22;4092;47.876;9.372;2023-06-14T15:39:14;31.30;47.80
8099;DHT22;4092;47.876;9.372;2023-06-14T15:41:41;31.30;46.90
8099;DHT22;4092;47.876;9.372;2023-06-14T15:44:09;31.20;47.00
8099;DHT22;4092;47.876;9.372;2023-06-14T15:46:38;31.00;48.10
8099;DHT22;4092;47.876;9.372;2023-06-14T15:49:09;31.10;48.00
8099;DHT22;4092;47.876;9.372;2023-06-14T15:51:36;31.10;47.80
8099;DHT22;4092;47.876;9.372;2023-06-14T15:54:03;30.90;48.10
8099;DHT22;4092;47.876;9.372;2023-06-14T15:56:31;31.00;48.70
8099;DHT22;4092;47.876;9.372;2023-06-14T15:58:59;30.90;48.10
8099;DHT22;4092;47.876;9.372;2023-06-14T16:01:26;31.00;47.70
8099;DHT22;4092;47.876;9.372;2023-06-14T16:03:55;30.80;47.80
8099;DHT22;4092;47.876;9.372;2023-06-14T16:06:22;30.60;48.40
8099;DHT22;4092;47.876;9.372;2023-06-14T16:08:49;30.70;47.60
8099;DHT22;4092;47.876;9.372;2023-06-14T16:11:17;30.70;47.00